Main page
METAR-TAF:

METAR-TAF

Airports :

Sofia Airport

Sofia, Bulgaria

latitude: 42-39N, longitude: 023-23E, elevation: 586 m

Current weather observation

The report was made 30 minutes ago, at 06:30 UTC
Wind 8 kt from the East/Southeast, varying between East/Northeast and South/Southeast
Temperature 20°C
Humidity 60%
Pressure 1019 hPa
Visibility 10 km or more
no clouds below 1500 m and no cumulonimbus

METAR: LBSF 110630Z 11008KT 070V150 CAVOK 20/12 Q1019 NOSIG

Time: 10:00 (07:00 UTC)

Forecast

The report was made 2 hours and 0 minutes ago, at 05:00 UTC
Forecast valid from 11 at 06 UTC to 12 at 06 UTC
Wind 4 kt from variable directions
Visibility 10 km or more
no clouds below 1500 m and no cumulonimbus
Becoming
from 11 at 08 UTC to 11 at 10 UTC
Wind 10 kt from the East/Southeast
Becoming
from 11 at 19 UTC to 11 at 21 UTC
Wind 4 kt from variable directions

TAF: LBSF 110500Z 1106/1206 VRB04KT CAVOK BECMG 1108/1110 11010KT BECMG 1119/1121 VRB04KT

Weather observations and forecasts of more than 4000 airports (METAR and TAF reports).

The available stations are represented by yellow and red dots on the map.

Hover mouse over dot to see the name of the station.

Then click to see weather observations and forecasts.

To change the map : click on the green buttons with a black cross to zoom in, on the green button with a dash to zoom out, or on the green arrows for adjacent maps.


METAR-TAF: